Time;durP1;ratioP1;P1;durP2;ratioP2;P2;SDS_P1;SDS_P2;PMS_P1;PMS_P2;Temp;Humidity;BMP_temperature;BMP_pressure;BME280_temperature;BME280_humidity;BME280_pressure;Samples;Min_cycle;Max_cycle;Signal;HPM_P1;HPM_P2
2023/12/27 00:00:04;;;;;;;12.75;3.78;;;6.80;99.90;;;;;;5016859;28;20057;-61
2023/12/27 00:02:31;;;;;;;16.15;4.10;;;6.80;99.90;;;;;;5016596;28;20100;-59
2023/12/27 00:04:58;;;;;;;16.05;3.67;;;6.80;99.90;;;;;;5016749;28;20056;-59
2023/12/27 00:07:25;;;;;;;15.82;3.70;;;6.90;99.90;;;;;;5015558;28;20430;-59
2023/12/27 00:09:51;;;;;;;11.85;3.42;;;6.90;99.90;;;;;;5016725;28;20120;-59
2023/12/27 00:12:18;;;;;;;15.38;3.40;;;6.90;99.90;;;;;;5016220;28;20045;-59
2023/12/27 00:14:45;;;;;;;13.88;3.10;;;7.00;99.90;;;;;;5016508;28;20088;-58
2023/12/27 00:17:12;;;;;;;16.23;3.85;;;7.00;99.90;;;;;;5017010;28;20064;-59
2023/12/27 00:19:39;;;;;;;13.43;3.22;;;7.10;99.90;;;;;;5015193;28;20112;-59
2023/12/27 00:22:06;;;;;;;11.63;3.85;;;7.10;99.90;;;;;;5016277;28;20046;-59
2023/12/27 00:24:33;;;;;;;16.73;3.65;;;7.10;99.90;;;;;;5016014;28;20057;-59
2023/12/27 00:26:59;;;;;;;16.73;3.45;;;7.20;99.90;;;;;;5016470;28;20478;-59
2023/12/27 00:29:26;;;;;;;14.30;3.35;;;7.20;99.90;;;;;;5016239;28;20042;-59
2023/12/27 00:31:54;;;;;;;17.17;4.15;;;7.20;99.90;;;;;;5015143;28;20489;-59
2023/12/27 00:34:21;;;;;;;15.75;3.50;;;7.20;99.90;;;;;;4998252;28;20053;-59
2023/12/27 00:36:48;;;;;;;12.70;3.20;;;7.20;99.90;;;;;;5016215;28;20046;-59
2023/12/27 00:39:16;;;;;;;19.35;4.28;;;7.30;99.90;;;;;;5014910;28;20368;-59
2023/12/27 00:41:43;;;;;;;14.95;3.33;;;7.30;99.90;;;;;;5014823;28;20041;-59
2023/12/27 00:44:11;;;;;;;15.10;3.60;;;7.40;99.90;;;;;;5014335;28;20046;-58
2023/12/27 00:46:38;;;;;;;17.55;3.78;;;7.40;99.90;;;;;;5015530;28;20499;-59
2023/12/27 00:49:05;;;;;;;14.70;3.22;;;7.40;99.90;;;;;;5015701;28;20034;-59
2023/12/27 00:51:32;;;;;;;9.82;3.33;;;7.40;99.90;;;;;;5015377;28;20037;-63
2023/12/27 00:53:59;;;;;;;13.90;2.90;;;7.50;99.90;;;;;;5014261;28;20054;-63
2023/12/27 00:56:26;;;;;;;14.00;3.17;;;7.50;99.90;;;;;;5015627;28;20117;-62
2023/12/27 00:58:54;;;;;;;15.10;3.60;;;7.60;99.90;;;;;;5014494;28;20072;-62
2023/12/27 01:01:21;;;;;;;9.88;3.00;;;7.60;99.90;;;;;;5013930;28;20042;-63
2023/12/27 01:03:47;;;;;;;10.07;2.92;;;7.60;99.90;;;;;;5014989;28;20468;-63
2023/12/27 01:06:15;;;;;;;15.30;3.03;;;7.60;99.90;;;;;;5013528;28;20044;-63
2023/12/27 01:08:41;;;;;;;15.10;2.90;;;7.70;99.90;;;;;;5015258;28;20038;-62
2023/12/27 01:11:08;;;;;;;13.75;3.17;;;7.70;99.90;;;;;;4997818;28;20050;-63
2023/12/27 01:13:35;;;;;;;12.77;3.65;;;7.70;99.90;;;;;;5013641;28;20104;-62
2023/12/27 01:16:02;;;;;;;12.68;3.33;;;7.70;99.90;;;;;;5014073;28;20038;-63
2023/12/27 01:18:29;;;;;;;17.88;4.00;;;7.70;99.90;;;;;;5015459;28;20526;-63
2023/12/27 01:20:56;;;;;;;14.50;3.08;;;7.70;99.90;;;;;;5015495;28;20100;-63
2023/12/27 01:23:23;;;;;;;13.80;3.15;;;7.70;99.90;;;;;;5013820;28;20096;-62
2023/12/27 01:25:50;;;;;;;13.73;3.17;;;7.80;99.90;;;;;;5014322;28;20038;-63
2023/12/27 01:28:17;;;;;;;13.85;2.95;;;7.80;99.90;;;;;;5013492;28;20046;-62
2023/12/27 01:30:43;;;;;;;17.10;3.00;;;7.80;99.90;;;;;;5015170;28;20092;-63
2023/12/27 01:33:10;;;;;;;14.20;3.10;;;7.70;99.90;;;;;;5014936;28;20416;-62
2023/12/27 01:35:37;;;;;;;13.38;2.72;;;7.70;99.90;;;;;;5013738;28;20417;-62
2023/12/27 01:38:04;;;;;;;14.05;3.00;;;7.80;99.90;;;;;;5014618;28;20107;-63
2023/12/27 01:40:31;;;;;;;17.17;3.20;;;7.80;99.90;;;;;;5014052;28;20057;-62
2023/12/27 01:42:59;;;;;;;13.82;2.75;;;7.80;99.90;;;;;;5014917;28;20394;-62
2023/12/27 01:45:26;;;;;;;11.68;2.47;;;7.70;99.90;;;;;;5014638;28;20048;-63
2023/12/27 01:47:53;;;;;;;12.88;2.72;;;7.80;99.90;;;;;;5013204;28;20038;-63
2023/12/27 01:50:20;;;;;;;13.75;2.55;;;7.80;99.90;;;;;;5013359;28;20132;-62
2023/12/27 01:52:46;;;;;;;12.98;2.75;;;7.80;99.90;;;;;;5013303;28;20096;-63
2023/12/27 01:55:13;;;;;;;14.80;2.53;;;7.80;99.90;;;;;;5013062;28;20045;-62
2023/12/27 01:57:40;;;;;;;11.18;2.92;;;7.80;99.90;;;;;;5014312;28;20041;-63
2023/12/27 02:00:07;;;;;;;13.43;2.78;;;7.80;99.90;;;;;;5013243;28;20044;-64
2023/12/27 02:02:41;;;;;;;10.68;2.35;;;7.80;99.90;;;;;;5014295;28;20129;-64
2023/12/27 02:05:08;;;;;;;13.65;2.83;;;7.80;99.90;;;;;;5012797;28;20514;-64
2023/12/27 02:07:35;;;;;;;9.75;2.22;;;7.80;99.90;;;;;;5014633;28;20182;-60
2023/12/27 02:10:02;;;;;;;11.10;2.47;;;7.80;99.90;;;;;;5014402;28;20033;-60
2023/12/27 02:12:29;;;;;;;8.43;2.28;;;7.80;99.90;;;;;;5012724;28;20038;-60
2023/12/27 02:14:57;;;;;;;8.73;2.30;;;7.80;99.90;;;;;;5012710;28;20050;-60
2023/12/27 02:17:24;;;;;;;7.35;2.08;;;7.80;99.90;;;;;;5012197;28;20064;-60
2023/12/27 02:19:51;;;;;;;9.23;2.42;;;7.90;99.90;;;;;;5012858;28;20156;-60
2023/12/27 02:22:19;;;;;;;11.75;2.53;;;7.90;99.90;;;;;;5014017;28;20041;-60
2023/12/27 02:24:46;;;;;;;6.95;2.42;;;7.90;99.90;;;;;;5012551;28;20475;-60
2023/12/27 02:27:12;;;;;;;8.73;2.47;;;7.90;99.90;;;;;;5012834;28;20088;-60
2023/12/27 02:29:40;;;;;;;6.72;2.05;;;7.90;99.90;;;;;;5013990;28;20088;-62
2023/12/27 02:32:11;;;;;;;8.52;2.35;;;7.90;99.90;;;;;;5013094;28;20477;-62
2023/12/27 02:34:38;;;;;;;5.25;2.15;;;7.90;99.90;;;;;;5013933;28;20058;-62
2023/12/27 02:37:05;;;;;;;8.32;2.20;;;7.90;99.90;;;;;;5013209;28;20538;-63
2023/12/27 02:39:32;;;;;;;7.30;2.47;;;7.90;99.90;;;;;;5012790;28;20054;-63
2023/12/27 02:41:58;;;;;;;7.07;2.05;;;8.00;99.90;;;;;;5012721;28;20096;-62
2023/12/27 02:44:26;;;;;;;8.80;1.92;;;8.00;99.90;;;;;;5012401;28;20132;-63
2023/12/27 02:46:53;;;;;;;6.80;2.13;;;8.00;99.90;;;;;;5012660;28;20042;-62
2023/12/27 02:49:20;;;;;;;4.15;1.92;;;8.00;99.90;;;;;;5012322;28;20045;-63
2023/12/27 02:51:47;;;;;;;9.95;2.17;;;8.00;99.90;;;;;;5014043;28;20066;-62
2023/12/27 02:54:13;;;;;;;7.78;2.20;;;8.00;99.90;;;;;;5013710;28;20112;-62
2023/12/27 02:56:40;;;;;;;6.55;2.08;;;8.00;99.90;;;;;;5012496;28;20414;-63
2023/12/27 02:59:09;;;;;;;6.90;1.95;;;8.00;99.90;;;;;;5012352;28;20053;-62
2023/12/27 03:01:36;;;;;;;5.72;2.20;;;8.00;99.90;;;;;;5012244;28;20148;-63
2023/12/27 03:04:02;;;;;;;5.75;1.88;;;8.00;99.90;;;;;;5013391;28;20045;-63
2023/12/27 03:06:29;;;;;;;9.38;2.53;;;8.00;99.90;;;;;;5013657;28;20050;-62
2023/12/27 03:08:56;;;;;;;7.15;2.20;;;8.00;99.90;;;;;;5013760;28;20447;-62
2023/12/27 03:11:23;;;;;;;7.93;2.50;;;8.10;99.90;;;;;;5012233;28;20475;-63
2023/12/27 03:13:50;;;;;;;8.30;2.30;;;8.10;99.90;;;;;;5011962;28;20129;-62
2023/12/27 03:16:17;;;;;;;5.93;2.40;;;8.10;99.90;;;;;;5012401;28;20553;-60
2023/12/27 03:18:43;;;;;;;8.18;2.17;;;8.10;99.90;;;;;;5013732;28;20121;-60
2023/12/27 03:21:10;;;;;;;6.53;2.33;;;8.20;99.90;;;;;;5013242;28;20092;-61
2023/12/27 03:23:39;;;;;;;8.10;2.17;;;8.20;99.90;;;;;;5012400;28;20046;-61
2023/12/27 03:26:06;;;;;;;4.93;2.10;;;8.20;99.90;;;;;;5013611;28;20041;-61
2023/12/27 03:28:32;;;;;;;6.53;2.20;;;8.20;99.90;;;;;;5015034;28;20061;-60
2023/12/27 03:30:59;;;;;;;5.80;2.10;;;8.30;99.90;;;;;;5017214;28;20048;-60
2023/12/27 03:33:26;;;;;;;5.38;1.80;;;8.30;99.90;;;;;;5017133;28;20057;-60
2023/12/27 03:35:53;;;;;;;4.50;1.83;;;8.30;99.90;;;;;;5017506;28;20038;-60
2023/12/27 03:38:20;;;;;;;4.60;1.83;;;8.30;99.90;;;;;;5017431;28;20069;-60
2023/12/27 03:40:47;;;;;;;4.53;1.80;;;8.30;99.90;;;;;;5017013;28;20046;-60
2023/12/27 03:43:14;;;;;;;5.43;1.90;;;8.40;99.90;;;;;;5015885;28;20140;-60
2023/12/27 03:45:41;;;;;;;6.18;1.92;;;8.40;99.90;;;;;;5017327;28;20046;-60
2023/12/27 03:48:08;;;;;;;3.25;1.65;;;8.40;99.90;;;;;;5016764;28;20124;-60
2023/12/27 03:50:35;;;;;;;3.58;1.98;;;8.40;99.90;;;;;;5016790;28;20073;-60
2023/12/27 03:53:02;;;;;;;3.78;2.10;;;8.50;99.90;;;;;;5017064;28;20087;-60
2023/12/27 03:55:29;;;;;;;5.43;2.13;;;8.50;99.90;;;;;;5015946;28;20056;-58
2023/12/27 03:57:55;;;;;;;6.03;2.20;;;8.50;99.90;;;;;;5017163;28;20045;-59
2023/12/27 04:00:23;;;;;;;6.85;2.40;;;8.50;99.90;;;;;;5015914;28;20049;-59
2023/12/27 04:02:50;;;;;;;4.82;2.30;;;8.50;99.90;;;;;;5016688;28;20049;-59
2023/12/27 04:05:16;;;;;;;5.13;2.60;;;8.60;99.90;;;;;;5016632;28;20093;-59
2023/12/27 04:07:43;;;;;;;4.72;2.50;;;8.60;99.90;;;;;;5015703;28;20495;-59
2023/12/27 04:10:10;;;;;;;7.85;2.50;;;8.60;99.90;;;;;;4999276;28;20045;-59
2023/12/27 04:12:37;;;;;;;6.25;2.47;;;8.60;99.90;;;;;;5016337;28;20049;-60
2023/12/27 04:15:04;;;;;;;7.70;2.72;;;8.70;99.90;;;;;;5016965;28;20498;-59
2023/12/27 04:17:31;;;;;;;6.35;2.47;;;8.70;99.90;;;;;;4998992;28;20069;-59
2023/12/27 04:19:58;;;;;;;6.82;2.60;;;8.70;99.90;;;;;;5016666;28;20041;-59
2023/12/27 04:22:25;;;;;;;6.00;2.60;;;8.70;99.90;;;;;;5016391;28;20049;-59
2023/12/27 04:24:51;;;;;;;5.75;2.72;;;8.80;99.90;;;;;;5015005;28;20136;-60
2023/12/27 04:27:20;;;;;;;5.05;2.40;;;8.80;99.90;;;;;;5015437;28;20568;-59
2023/12/27 04:29:47;;;;;;;7.47;2.30;;;8.80;99.90;;;;;;5016730;28;20038;-59
2023/12/27 04:32:14;;;;;;;9.43;2.67;;;8.90;99.90;;;;;;5016327;28;20364;-63
2023/12/27 04:34:40;;;;;;;8.63;2.40;;;9.00;99.90;;;;;;5017499;28;20104;-63
2023/12/27 04:37:07;;;;;;;5.72;2.42;;;9.00;99.90;;;;;;5016999;28;20050;-64
2023/12/27 04:39:35;;;;;;;9.23;2.38;;;9.10;99.90;;;;;;5015024;28;20499;-59
2023/12/27 04:42:02;;;;;;;9.05;2.50;;;9.10;99.90;;;;;;5016557;28;20050;-60
2023/12/27 04:44:28;;;;;;;10.88;3.03;;;9.20;99.90;;;;;;5016040;28;20057;-60
2023/12/27 04:46:55;;;;;;;9.32;2.50;;;9.20;99.90;;;;;;4999009;28;20056;-60
2023/12/27 04:49:22;;;;;;;8.35;2.42;;;9.20;99.90;;;;;;5014472;28;20033;-60
2023/12/27 04:51:49;;;;;;;7.03;2.33;;;9.30;99.90;;;;;;5015878;28;20039;-64
2023/12/27 04:54:16;;;;;;;12.60;2.97;;;9.30;99.90;;;;;;5015633;28;20038;-60
2023/12/27 04:56:43;;;;;;;7.65;2.47;;;9.40;99.90;;;;;;5014830;28;20046;-60
2023/12/27 04:59:10;;;;;;;12.57;3.10;;;9.40;99.90;;;;;;5014382;28;20042;-60
2023/12/27 05:01:37;;;;;;;9.40;2.60;;;9.50;99.90;;;;;;5014840;28;20049;-60
2023/12/27 05:04:03;;;;;;;10.52;2.50;;;9.50;99.90;;;;;;5013997;28;20116;-60
2023/12/27 05:06:30;;;;;;;8.40;2.30;;;9.50;99.90;;;;;;5014777;28;20144;-60
2023/12/27 05:08:59;;;;;;;7.20;2.50;;;9.50;99.90;;;;;;5014846;28;20038;-60
2023/12/27 05:11:27;;;;;;;12.73;2.92;;;9.60;99.90;;;;;;5015451;28;20054;-60
2023/12/27 05:13:54;;;;;;;13.65;3.67;;;9.60;99.90;;;;;;5015082;28;20046;-60
2023/12/27 05:16:20;;;;;;;12.38;3.25;;;9.70;99.90;;;;;;5015808;28;20379;-60
2023/12/27 05:18:47;;;;;;;14.48;3.08;;;9.70;99.90;;;;;;5015684;28;20048;-60
2023/12/27 05:21:14;;;;;;;9.68;3.17;;;9.70;99.90;;;;;;5015270;28;20553;-62
2023/12/27 05:23:41;;;;;;;11.48;3.30;;;9.80;99.90;;;;;;5014968;28;20050;-61
2023/12/27 05:26:08;;;;;;;10.50;2.70;;;9.80;99.90;;;;;;5015645;28;20046;-62
2023/12/27 05:28:35;;;;;;;13.95;3.55;;;9.80;99.90;;;;;;5015178;28;20042;-62
2023/12/27 05:31:01;;;;;;;12.10;3.33;;;9.90;99.90;;;;;;5015311;28;20030;-62
2023/12/27 05:33:29;;;;;;;13.00;2.95;;;9.90;99.90;;;;;;5014963;28;20108;-62
2023/12/27 05:35:56;;;;;;;14.18;3.08;;;9.90;99.90;;;;;;5014734;28;20124;-63
2023/12/27 05:38:24;;;;;;;16.40;3.05;;;10.00;99.90;;;;;;5014526;28;20103;-63
2023/12/27 05:40:51;;;;;;;15.25;3.00;;;10.00;99.90;;;;;;5014564;28;20065;-63
2023/12/27 05:43:18;;;;;;;11.27;3.10;;;10.00;99.90;;;;;;5014449;28;20052;-63
2023/12/27 05:45:44;;;;;;;15.40;3.28;;;10.00;99.90;;;;;;5014432;28;20550;-63
2023/12/27 05:48:12;;;;;;;12.18;3.08;;;10.00;99.90;;;;;;5014546;28;20045;-64
2023/12/27 05:50:39;;;;;;;12.77;3.45;;;10.10;99.90;;;;;;5013690;28;20045;-63
2023/12/27 05:53:06;;;;;;;13.18;3.30;;;10.10;99.90;;;;;;5014472;28;20100;-63
2023/12/27 05:55:33;;;;;;;12.77;3.38;;;10.10;99.90;;;;;;5014713;28;20120;-59
2023/12/27 05:57:59;;;;;;;13.95;3.00;;;10.10;99.90;;;;;;5014611;28;20046;-60
2023/12/27 06:00:26;;;;;;;13.13;3.75;;;10.10;99.90;;;;;;5013546;28;20491;-60
2023/12/27 06:02:53;;;;;;;12.98;3.20;;;10.10;99.90;;;;;;5014174;28;20228;-60
2023/12/27 06:05:20;;;;;;;13.88;3.30;;;10.20;99.90;;;;;;5014377;28;20167;-60
2023/12/27 06:07:47;;;;;;;10.77;3.35;;;10.20;99.90;;;;;;5014474;28;20060;-60
2023/12/27 06:10:14;;;;;;;13.43;4.07;;;10.20;99.90;;;;;;5014369;28;20041;-60
2023/12/27 06:12:41;;;;;;;18.80;4.13;;;10.20;99.90;;;;;;4996521;28;20057;-60
2023/12/27 06:15:09;;;;;;;17.45;4.75;;;10.30;99.90;;;;;;5014167;28;20120;-58
2023/12/27 06:17:36;;;;;;;16.15;4.13;;;10.30;99.90;;;;;;5014381;28;20364;-63
2023/12/27 06:20:04;;;;;;;15.30;3.63;;;10.30;99.90;;;;;;5014147;28;20069;-63
2023/12/27 06:22:30;;;;;;;14.27;3.42;;;10.30;99.90;;;;;;5014354;28;20437;-59
2023/12/27 06:24:57;;;;;;;11.38;3.63;;;10.30;99.90;;;;;;5013783;28;20464;-59
2023/12/27 06:27:24;;;;;;;10.68;3.63;;;10.30;99.90;;;;;;5014016;28;20037;-62
2023/12/27 06:29:51;;;;;;;15.50;3.75;;;10.30;99.90;;;;;;5012333;28;20046;-63
2023/12/27 06:32:18;;;;;;;16.85;4.25;;;10.40;99.90;;;;;;5014194;28;20058;-63
2023/12/27 06:34:44;;;;;;;16.65;4.30;;;10.40;99.90;;;;;;5012310;28;20428;-62
2023/12/27 06:37:11;;;;;;;11.43;3.80;;;10.40;99.90;;;;;;5013639;28;20380;-63
2023/12/27 06:39:38;;;;;;;15.20;4.25;;;10.40;99.90;;;;;;5013786;28;20422;-62
2023/12/27 06:42:05;;;;;;;15.65;3.95;;;10.50;99.90;;;;;;5013672;28;20038;-62
2023/12/27 06:44:32;;;;;;;15.13;3.80;;;10.50;99.90;;;;;;5013493;28;20038;-62
2023/12/27 06:46:58;;;;;;;12.85;4.47;;;10.50;99.90;;;;;;5013844;28;20042;-62
2023/12/27 06:49:25;;;;;;;17.23;4.32;;;10.50;99.90;;;;;;5013438;28;20033;-62
2023/12/27 06:51:52;;;;;;;16.65;4.97;;;10.50;99.90;;;;;;5014262;28;20038;-60
2023/12/27 06:54:19;;;;;;;16.50;4.18;;;10.50;99.90;;;;;;5012344;28;20415;-60
2023/12/27 06:56:46;;;;;;;10.23;4.15;;;10.50;99.90;;;;;;5013793;28;20479;-60
2023/12/27 06:59:15;;;;;;;17.23;4.50;;;10.50;99.90;;;;;;5012300;28;20086;-60
2023/12/27 07:01:42;;;;;;;16.75;4.30;;;10.60;99.90;;;;;;5013178;28;20053;-60
2023/12/27 07:04:09;;;;;;;12.20;4.18;;;10.50;99.90;;;;;;5013288;28;20386;-60
2023/12/27 07:06:36;;;;;;;12.65;3.83;;;10.60;99.90;;;;;;5013449;28;20132;-60
2023/12/27 07:09:03;;;;;;;12.13;3.95;;;10.60;99.90;;;;;;5013504;28;20041;-60
2023/12/27 07:11:30;;;;;;;15.15;4.63;;;10.60;99.90;;;;;;5013546;28;20376;-60
2023/12/27 07:13:57;;;;;;;13.77;4.22;;;10.60;99.90;;;;;;5013015;28;20076;-63
2023/12/27 07:16:24;;;;;;;15.77;4.03;;;10.60;99.90;;;;;;5013080;28;20046;-62
2023/12/27 07:18:51;;;;;;;11.73;4.22;;;10.60;99.90;;;;;;5013200;28;20430;-63
2023/12/27 07:21:17;;;;;;;10.70;3.70;;;10.60;99.90;;;;;;5013375;28;20050;-62
2023/12/27 07:23:44;;;;;;;11.90;3.65;;;10.70;99.90;;;;;;5012905;28;20042;-62
2023/12/27 07:26:11;;;;;;;12.45;3.90;;;10.70;99.90;;;;;;5011953;28;20038;-62
2023/12/27 07:28:39;;;;;;;11.63;4.30;;;10.70;99.90;;;;;;5013282;28;20380;-62
2023/12/27 07:31:06;;;;;;;11.30;3.50;;;10.70;99.90;;;;;;5013274;28;20046;-62
2023/12/27 07:33:33;;;;;;;10.90;3.53;;;10.70;99.90;;;;;;5012149;28;20486;-62
2023/12/27 07:36:00;;;;;;;10.65;3.50;;;10.70;99.90;;;;;;5013383;28;20439;-63
2023/12/27 07:38:27;;;;;;;14.18;3.35;;;10.70;99.90;;;;;;5013015;28;20049;-63
2023/12/27 07:40:55;;;;;;;13.35;3.60;;;10.60;99.90;;;;;;5013315;28;20054;-60
2023/12/27 07:43:24;;;;;;;10.95;3.55;;;10.60;99.90;;;;;;5013310;28;20467;-60
2023/12/27 07:45:51;;;;;;;10.77;3.85;;;10.60;99.90;;;;;;5011387;28;20134;-60
2023/12/27 07:48:18;;;;;;;11.75;4.05;;;10.70;99.90;;;;;;5012762;28;20129;-59
2023/12/27 07:50:46;;;;;;;11.65;4.05;;;10.70;99.90;;;;;;5013410;28;20125;-60
2023/12/27 07:53:13;;;;;;;11.43;4.90;;;10.70;99.90;;;;;;5011360;28;20046;-62
2023/12/27 07:55:39;;;;;;;15.63;4.43;;;10.70;99.90;;;;;;5013070;28;20056;-62
2023/12/27 07:58:08;;;;;;;14.40;4.40;;;10.70;99.90;;;;;;5012178;28;20045;-63
2023/12/27 08:00:35;;;;;;;11.80;4.28;;;10.70;99.90;;;;;;5011885;28;20042;-63
2023/12/27 08:03:07;;;;;;;15.10;4.78;;;10.70;99.90;;;;;;5013146;28;20088;-62
2023/12/27 08:05:38;;;;;;;13.32;5.22;;;10.80;99.90;;;;;;5013149;28;20113;-62
2023/12/27 08:08:05;;;;;;;17.58;4.88;;;10.80;99.90;;;;;;5012852;28;20454;-62
2023/12/27 08:10:32;;;;;;;17.23;4.72;;;10.80;99.90;;;;;;5013076;28;20431;-63
2023/12/27 08:13:00;;;;;;;22.25;5.20;;;10.80;99.90;;;;;;5012919;28;20054;-64
2023/12/27 08:15:27;;;;;;;13.60;4.68;;;10.90;99.90;;;;;;5015614;28;20037;-60
2023/12/27 08:17:54;;;;;;;15.10;4.93;;;10.90;99.90;;;;;;5016358;28;20340;-60
2023/12/27 08:20:22;;;;;;;12.75;4.78;;;10.90;99.90;;;;;;5016400;28;20042;-60
2023/12/27 08:22:51;;;;;;;13.88;4.68;;;11.00;99.90;;;;;;5014745;28;20060;-60
2023/12/27 08:25:18;;;;;;;16.98;4.65;;;11.00;99.90;;;;;;5016474;28;20033;-59
2023/12/27 08:27:45;;;;;;;15.00;4.18;;;11.00;99.90;;;;;;5016229;28;20048;-62
2023/12/27 08:30:13;;;;;;;11.82;3.95;;;11.00;99.90;;;;;;5015994;28;20076;-63
2023/12/27 08:32:40;;;;;;;12.48;4.72;;;11.00;99.90;;;;;;5015761;28;20044;-62
2023/12/27 08:35:07;;;;;;;13.25;4.60;;;11.00;99.90;;;;;;5014854;28;20137;-63
2023/12/27 08:37:33;;;;;;;16.92;4.43;;;11.10;99.90;;;;;;5015783;28;20131;-62
2023/12/27 08:40:00;;;;;;;11.75;4.70;;;11.10;99.90;;;;;;5015850;28;20065;-63
2023/12/27 08:42:27;;;;;;;13.98;4.80;;;11.10;99.90;;;;;;5014462;28;20072;-62
2023/12/27 08:44:54;;;;;;;15.07;4.55;;;11.20;99.90;;;;;;5015617;28;20401;-62
2023/12/27 08:47:22;;;;;;;15.00;5.18;;;11.20;99.90;;;;;;5014703;28;20049;-62
2023/12/27 08:49:50;;;;;;;16.50;4.72;;;11.20;99.90;;;;;;5014691;28;20110;-63
2023/12/27 08:52:17;;;;;;;15.70;4.70;;;11.20;99.90;;;;;;5016053;28;20038;-63
2023/12/27 08:54:44;;;;;;;11.80;5.15;;;11.20;99.90;;;;;;5015384;28;20374;-64
2023/12/27 08:57:11;;;;;;;13.77;4.82;;;11.20;99.90;;;;;;5014837;28;20049;-63
2023/12/27 08:59:38;;;;;;;14.15;4.95;;;11.20;99.90;;;;;;5015263;28;20439;-64
2023/12/27 09:02:05;;;;;;;16.13;5.55;;;11.30;99.90;;;;;;5015862;28;20045;-63
2023/12/27 09:04:32;;;;;;;16.77;4.90;;;11.20;99.90;;;;;;5014112;28;20449;-63
2023/12/27 09:06:59;;;;;;;13.13;4.28;;;11.30;99.90;;;;;;5015901;28;20037;-64
2023/12/27 09:09:26;;;;;;;11.90;4.57;;;11.30;99.90;;;;;;5015470;28;20088;-64
2023/12/27 09:11:53;;;;;;;16.77;5.22;;;11.20;99.90;;;;;;5015654;28;20049;-60
2023/12/27 09:14:19;;;;;;;14.32;4.53;;;11.20;99.90;;;;;;5015226;28;20077;-60
2023/12/27 09:16:46;;;;;;;14.30;4.63;;;11.30;99.90;;;;;;5015738;28;20048;-64
2023/12/27 09:19:13;;;;;;;14.10;4.72;;;11.30;99.90;;;;;;5014365;28;20443;-64
2023/12/27 09:21:40;;;;;;;13.63;4.82;;;11.30;99.90;;;;;;5015601;28;20069;-64
2023/12/27 09:24:07;;;;;;;15.40;4.63;;;11.30;99.90;;;;;;5015204;28;20048;-64
2023/12/27 09:26:34;;;;;;;13.13;4.75;;;11.30;99.90;;;;;;5014190;28;20402;-64
2023/12/27 09:29:02;;;;;;;19.80;4.57;;;11.30;99.90;;;;;;5015071;28;20471;-63
2023/12/27 09:31:30;;;;;;;16.60;5.13;;;11.40;99.90;;;;;;5013834;28;20040;-60
2023/12/27 09:33:59;;;;;;;18.95;4.93;;;11.40;99.90;;;;;;5014758;28;20533;-60
2023/12/27 09:36:26;;;;;;;16.58;4.93;;;11.40;99.90;;;;;;5013709;28;20100;-60
2023/12/27 09:38:53;;;;;;;15.38;5.07;;;11.40;99.90;;;;;;5014880;28;20041;-60
2023/12/27 09:41:20;;;;;;;15.02;4.47;;;11.40;99.90;;;;;;5014771;28;20042;-60
2023/12/27 09:43:47;;;;;;;13.48;4.63;;;11.40;99.90;;;;;;5014595;28;20092;-60
2023/12/27 09:46:14;;;;;;;11.88;4.40;;;11.50;99.90;;;;;;5014788;28;20407;-60
2023/12/27 09:48:41;;;;;;;14.68;5.45;;;11.40;99.90;;;;;;5013277;28;20084;-60
2023/12/27 09:51:08;;;;;;;13.05;4.90;;;11.50;99.90;;;;;;5014522;28;20430;-60
2023/12/27 09:53:35;;;;;;;16.23;4.82;;;11.50;99.90;;;;;;5014286;28;20048;-60
2023/12/27 09:56:01;;;;;;;16.77;4.85;;;11.50;99.90;;;;;;5014798;28;20064;-60
2023/12/27 09:58:28;;;;;;;13.10;4.88;;;11.50;99.90;;;;;;5014223;28;20076;-60
2023/12/27 10:00:55;;;;;;;14.70;5.22;;;11.50;99.90;;;;;;5014546;28;20142;-60
2023/12/27 10:03:22;;;;;;;14.40;4.63;;;11.50;99.90;;;;;;5014733;28;20578;-60
2023/12/27 10:05:49;;;;;;;15.15;5.25;;;11.50;99.90;;;;;;5014314;28;20061;-64
2023/12/27 10:08:16;;;;;;;11.68;4.43;;;11.50;99.90;;;;;;5014249;28;20038;-64
2023/12/27 10:10:43;;;;;;;16.73;4.72;;;11.60;99.90;;;;;;5013297;28;20388;-59
2023/12/27 10:13:09;;;;;;;14.00;4.50;;;11.50;99.90;;;;;;5014342;28;20104;-59
2023/12/27 10:15:36;;;;;;;13.43;4.60;;;11.50;99.90;;;;;;5013168;28;20487;-59
2023/12/27 10:18:03;;;;;;;15.07;4.78;;;11.60;99.90;;;;;;5014534;28;20380;-59
2023/12/27 10:20:31;;;;;;;12.88;4.68;;;11.50;99.90;;;;;;5013158;28;20034;-60
2023/12/27 10:22:58;;;;;;;11.80;4.85;;;11.50;99.90;;;;;;5014153;28;20041;-59
2023/12/27 10:25:26;;;;;;;13.65;5.00;;;11.50;99.90;;;;;;5013990;28;20129;-64
2023/12/27 10:27:52;;;;;;;12.52;4.15;;;11.50;99.90;;;;;;5014320;28;20041;-63
2023/12/27 10:30:20;;;;;;;12.98;4.95;;;11.50;99.90;;;;;;5013142;28;20037;-63
2023/12/27 10:32:46;;;;;;;11.52;4.90;;;11.40;99.90;;;;;;5012724;28;20546;-64
2023/12/27 10:35:13;;;;;;;15.15;4.85;;;11.40;99.90;;;;;;5013963;28;20463;-62
2023/12/27 10:37:43;;;;;;;13.07;5.80;;;11.40;99.90;;;;;;5012084;28;20069;-63
2023/12/27 10:40:09;;;;;;;13.25;4.75;;;11.40;99.90;;;;;;5013019;28;20038;-63
2023/12/27 10:42:37;;;;;;;10.55;4.43;;;11.40;99.90;;;;;;5014390;28;20049;-63
2023/12/27 10:45:03;;;;;;;9.90;4.80;;;11.40;99.90;;;;;;5013575;28;20072;-63
2023/12/27 10:47:30;;;;;;;16.33;4.90;;;11.40;99.90;;;;;;5013798;28;20041;-63
2023/12/27 10:49:58;;;;;;;18.80;5.35;;;11.40;99.90;;;;;;5012765;28;20038;-63
2023/12/27 10:52:25;;;;;;;13.57;4.65;;;11.40;99.90;;;;;;5013540;28;20046;-63
2023/12/27 10:55:02;;;;;;;;;;;;;;;;;;;;;
2023/12/27 10:58:12;;;;;;;12.20;4.80;;;11.40;99.90;;;;;;5024576;28;20037;-63
2023/12/27 11:00:55;;;;;;;16.08;5.90;;;11.40;99.90;;;;;;5016414;28;20064;-63
2023/12/27 11:03:22;;;;;;;14.40;4.78;;;11.40;99.90;;;;;;5013638;28;20112;-63
2023/12/27 11:05:49;;;;;;;14.52;5.10;;;11.40;99.90;;;;;;5013877;28;20049;-63
2023/12/27 11:08:16;;;;;;;14.27;4.72;;;11.50;99.90;;;;;;5013484;28;20080;-63
2023/12/27 11:10:44;;;;;;;10.13;4.70;;;11.40;99.90;;;;;;5013211;28;20045;-63
2023/12/27 11:13:11;;;;;;;16.42;5.07;;;11.50;99.90;;;;;;5011917;28;20137;-59
2023/12/27 11:15:39;;;;;;;12.75;4.85;;;11.50;99.90;;;;;;5012284;28;20038;-58
2023/12/27 11:18:08;;;;;;;12.25;4.60;;;11.40;99.90;;;;;;5013437;28;20510;-59
2023/12/27 11:20:35;;;;;;;15.18;4.75;;;11.30;99.90;;;;;;5013517;28;20063;-58
2023/12/27 11:23:02;;;;;;;11.25;4.72;;;11.30;99.90;;;;;;5013567;28;20073;-63
2023/12/27 11:25:29;;;;;;;9.70;3.97;;;11.20;99.90;;;;;;5013867;28;20045;-58
2023/12/27 11:27:56;;;;;;;12.20;4.53;;;11.20;99.90;;;;;;5012170;28;20058;-59
2023/12/27 11:30:23;;;;;;;10.48;4.50;;;11.20;99.90;;;;;;5014587;28;20076;-58
2023/12/27 11:32:50;;;;;;;11.57;5.00;;;11.10;99.90;;;;;;5012419;28;20046;-58
2023/12/27 11:35:17;;;;;;;11.30;4.25;;;11.10;99.90;;;;;;5013216;28;20041;-59
2023/12/27 11:37:43;;;;;;;12.23;4.50;;;11.00;99.90;;;;;;5013380;28;20046;-58
2023/12/27 11:40:10;;;;;;;9.95;4.10;;;11.00;99.90;;;;;;5013313;28;20045;-59
2023/12/27 11:42:38;;;;;;;9.57;4.00;;;11.00;99.90;;;;;;5013355;28;20053;-62
2023/12/27 11:45:04;;;;;;;10.48;4.15;;;11.00;99.90;;;;;;5013289;28;20049;-59
2023/12/27 11:47:31;;;;;;;8.77;3.60;;;11.00;99.90;;;;;;5011789;28;20415;-59
2023/12/27 11:49:58;;;;;;;13.63;4.50;;;11.00;99.90;;;;;;5015531;28;20069;-59
2023/12/27 11:52:25;;;;;;;10.82;3.63;;;11.00;99.90;;;;;;5017103;28;20034;-59
2023/12/27 11:54:52;;;;;;;10.98;4.10;;;11.00;99.90;;;;;;5016859;28;20045;-58
2023/12/27 11:57:18;;;;;;;9.93;4.28;;;11.00;99.90;;;;;;5016739;28;20053;-58
2023/12/27 11:59:45;;;;;;;8.20;4.15;;;10.90;99.90;;;;;;5016737;28;20506;-59
2023/12/27 12:02:13;;;;;;;12.40;4.03;;;10.90;99.90;;;;;;5017041;28;20111;-63
2023/12/27 12:04:40;;;;;;;10.18;4.40;;;10.90;99.90;;;;;;5016438;28;20442;-62
2023/12/27 12:07:07;;;;;;;9.90;4.03;;;10.90;99.90;;;;;;5016576;28;20426;-62
2023/12/27 12:09:34;;;;;;;12.05;4.13;;;10.90;99.90;;;;;;5015253;28;20360;-62
2023/12/27 12:12:00;;;;;;;13.50;4.50;;;10.90;99.90;;;;;;5015223;28;20091;-62
2023/12/27 12:14:27;;;;;;;11.13;4.20;;;10.90;99.90;;;;;;5016066;28;20128;-58
2023/12/27 12:16:54;;;;;;;13.13;4.75;;;10.90;99.90;;;;;;5016360;28;20509;-58
2023/12/27 12:19:21;;;;;;;15.93;5.22;;;11.00;99.90;;;;;;5016529;28;20380;-58
2023/12/27 12:21:51;;;;;;;11.63;4.32;;;11.00;99.90;;;;;;5016583;28;20042;-63
2023/12/27 12:24:18;;;;;;;11.30;4.28;;;11.00;99.90;;;;;;5017809;28;20042;-58
2023/12/27 12:26:48;;;;;;;13.77;4.90;;;11.00;99.90;;;;;;5016146;28;20152;-58
2023/12/27 12:29:15;;;;;;;16.33;4.32;;;11.10;99.90;;;;;;5016398;28;20065;-59
2023/12/27 12:31:41;;;;;;;15.57;4.40;;;11.10;99.90;;;;;;5016273;28;20471;-59
2023/12/27 12:34:08;;;;;;;13.90;4.53;;;11.10;99.90;;;;;;5015708;28;20069;-61
2023/12/27 12:36:35;;;;;;;11.85;4.15;;;11.20;99.90;;;;;;5016073;28;20046;-62
2023/12/27 12:39:02;;;;;;;12.50;4.45;;;11.20;99.90;;;;;;5014889;28;20042;-62
2023/12/27 12:41:32;;;;;;;12.70;4.07;;;11.20;99.90;;;;;;5016086;28;20521;-62
2023/12/27 12:43:58;;;;;;;13.18;4.65;;;11.30;99.90;;;;;;5015868;28;20363;-62